createdAt,value
2023-03-26T00:01:39.421Z,1.93
2023-03-26T00:04:07.822Z,2.08
2023-03-26T00:06:39.396Z,1.92
2023-03-26T00:09:10.527Z,3.53
2023-03-26T00:11:37.755Z,5.85
2023-03-26T00:14:05.484Z,4.80
2023-03-26T00:16:33.601Z,4.25
2023-03-26T00:19:02.037Z,4.20
2023-03-26T00:21:31.010Z,3.30
2023-03-26T00:24:04.485Z,3.42
2023-03-26T00:26:37.730Z,2.97
2023-03-26T00:29:06.836Z,2.35
2023-03-26T00:31:35.018Z,1.95
2023-03-26T00:34:03.940Z,1.42
2023-03-26T00:36:31.473Z,1.77
2023-03-26T00:38:58.662Z,2.00
2023-03-26T00:41:30.831Z,1.52
2023-03-26T00:44:00.057Z,1.98
2023-03-26T00:46:31.220Z,2.28
2023-03-26T00:49:00.525Z,3.33
2023-03-26T00:51:29.117Z,2.53
2023-03-26T00:53:57.504Z,2.10
2023-03-26T00:56:25.444Z,1.95
2023-03-26T00:58:52.537Z,2.38
2023-03-26T01:01:27.959Z,1.85
2023-03-26T01:04:08.369Z,1.70
2023-03-26T01:06:42.246Z,1.83
2023-03-26T01:09:21.365Z,1.60
2023-03-26T01:11:49.935Z,2.05
2023-03-26T01:14:23.509Z,1.55
2023-03-26T01:17:06.055Z,1.83
2023-03-26T01:20:07.543Z,2.08
2023-03-26T01:22:37.714Z,2.33
2023-03-26T01:25:05.510Z,1.95
2023-03-26T01:27:45.438Z,1.48
2023-03-26T01:30:27.541Z,2.07
2023-03-26T01:33:46.930Z,1.83
2023-03-26T01:36:23.731Z,2.30
2023-03-26T01:39:19.501Z,2.13
2023-03-26T01:41:54.686Z,1.60
2023-03-26T01:44:38.541Z,2.37
2023-03-26T01:47:07.498Z,2.15
2023-03-26T01:49:34.657Z,2.10
2023-03-26T01:52:02.257Z,2.35
2023-03-26T01:54:32.091Z,2.15
2023-03-26T01:57:56.926Z,2.47
2023-03-26T02:01:02.113Z,1.90
2023-03-26T02:03:36.642Z,1.88
2023-03-26T02:06:23.978Z,1.70
2023-03-26T02:09:01.568Z,2.10
2023-03-26T02:11:35.397Z,1.40
2023-03-26T02:14:06.118Z,1.67
2023-03-26T02:16:33.845Z,1.60
2023-03-26T02:19:01.157Z,1.85
2023-03-26T02:21:28.862Z,1.52
2023-03-26T02:24:02.879Z,1.30
2023-03-26T02:26:35.753Z,1.52
2023-03-26T02:29:11.299Z,1.55
2023-03-26T02:31:41.039Z,1.20
2023-03-26T02:34:08.273Z,1.75
2023-03-26T02:36:38.103Z,1.70
2023-03-26T02:39:05.458Z,1.48
2023-03-26T02:41:37.656Z,1.63
2023-03-26T02:44:08.837Z,1.10
2023-03-26T02:46:54.620Z,1.30
2023-03-26T02:49:40.297Z,1.00
2023-03-26T02:52:07.577Z,1.67
2023-03-26T02:54:36.985Z,1.65
2023-03-26T02:57:14.654Z,2.25
2023-03-26T02:59:41.895Z,1.23
2023-03-26T03:02:41.489Z,1.10
2023-03-26T03:05:28.965Z,1.90
2023-03-26T03:08:23.853Z,1.35
2023-03-26T03:11:24.910Z,1.20
2023-03-26T03:13:53.941Z,1.30
2023-03-26T03:16:28.577Z,1.40
2023-03-26T03:18:58.398Z,1.45
2023-03-26T03:21:51.682Z,1.70
2023-03-26T03:24:18.876Z,1.67
2023-03-26T03:26:50.238Z,1.52
2023-03-26T03:29:43.716Z,1.00
2023-03-26T03:32:29.210Z,1.60
2023-03-26T03:35:00.829Z,1.63
2023-03-26T03:37:28.519Z,1.60
2023-03-26T03:39:56.238Z,1.17
2023-03-26T03:42:27.467Z,1.30
2023-03-26T03:44:57.309Z,1.23
2023-03-26T03:47:55.449Z,1.40
2023-03-26T03:50:29.850Z,1.33
2023-03-26T03:53:16.503Z,1.13
2023-03-26T03:55:54.164Z,1.47
2023-03-26T03:58:28.363Z,1.10
2023-03-26T04:01:04.283Z,2.00
2023-03-26T04:03:55.978Z,0.90
2023-03-26T04:06:30.217Z,1.65
2023-03-26T04:08:57.608Z,1.30
2023-03-26T04:11:25.259Z,2.03
2023-03-26T04:14:24.334Z,1.17
2023-03-26T04:17:05.437Z,1.00
2023-03-26T04:19:35.586Z,1.35
2023-03-26T04:22:03.066Z,1.20
2023-03-26T04:24:40.123Z,1.65
2023-03-26T04:27:32.064Z,1.65
2023-03-26T04:30:19.068Z,1.20
2023-03-26T04:32:47.264Z,1.70
2023-03-26T04:35:16.927Z,1.00
2023-03-26T04:37:48.844Z,1.10
2023-03-26T04:40:25.260Z,1.17
2023-03-26T04:42:54.676Z,1.13
2023-03-26T04:45:48.090Z,0.93
2023-03-26T04:48:16.295Z,0.90
2023-03-26T04:50:45.269Z,1.23
2023-03-26T04:53:18.895Z,1.30
2023-03-26T04:56:03.120Z,1.05
2023-03-26T04:58:51.813Z,0.93
2023-03-26T05:01:19.948Z,1.00
2023-03-26T05:03:47.248Z,0.77
2023-03-26T05:06:17.780Z,1.00
2023-03-26T05:08:45.030Z,0.90
2023-03-26T05:11:20.567Z,1.17
2023-03-26T05:13:47.985Z,0.90
2023-03-26T05:16:15.373Z,1.08
2023-03-26T05:18:49.000Z,1.40
2023-03-26T05:21:16.327Z,0.85
2023-03-26T05:23:43.604Z,1.45
2023-03-26T05:26:18.841Z,1.27
2023-03-26T05:28:45.962Z,1.98
2023-03-26T05:31:21.744Z,1.27
2023-03-26T05:33:52.050Z,1.17
2023-03-26T05:36:19.480Z,0.98
2023-03-26T05:39:07.012Z,1.07
2023-03-26T05:42:12.633Z,1.05
2023-03-26T05:44:55.215Z,0.90
2023-03-26T05:47:27.507Z,0.70
2023-03-26T05:49:54.957Z,1.08
2023-03-26T05:52:22.129Z,0.80
2023-03-26T05:55:16.072Z,0.60
2023-03-26T05:58:01.835Z,0.70
2023-03-26T06:01:18.537Z,0.88
2023-03-26T06:04:04.227Z,0.68
2023-03-26T06:06:37.003Z,1.03
2023-03-26T06:09:04.604Z,0.70
2023-03-26T06:11:32.982Z,0.32
2023-03-26T06:14:01.960Z,0.88
2023-03-26T06:16:29.463Z,0.82
2023-03-26T06:19:07.073Z,0.60
2023-03-26T06:21:47.515Z,0.50
2023-03-26T06:24:31.831Z,0.82
2023-03-26T06:27:21.939Z,0.68
2023-03-26T06:30:10.303Z,0.47
2023-03-26T06:32:43.151Z,0.57
2023-03-26T06:35:14.293Z,0.57
2023-03-26T06:37:42.537Z,0.88
2023-03-26T06:40:10.484Z,0.40
2023-03-26T06:43:08.783Z,0.90
2023-03-26T06:46:04.535Z,0.60
2023-03-26T06:48:43.876Z,0.52
2023-03-26T06:51:38.637Z,0.65
2023-03-26T06:54:08.631Z,0.57
2023-03-26T06:56:46.712Z,0.60
2023-03-26T06:59:32.590Z,0.57
2023-03-26T07:02:18.442Z,0.50
2023-03-26T07:05:09.339Z,0.70
2023-03-26T07:07:54.806Z,0.60
2023-03-26T07:10:21.954Z,0.40
2023-03-26T07:13:12.313Z,0.50
2023-03-26T07:15:49.466Z,0.50
2023-03-26T07:18:35.584Z,0.43
2023-03-26T07:21:05.511Z,0.73
2023-03-26T07:23:33.750Z,0.60
2023-03-26T07:26:39.084Z,0.70
2023-03-26T07:29:46.037Z,0.60
2023-03-26T07:32:58.661Z,0.60
2023-03-26T07:36:11.944Z,0.70
2023-03-26T07:39:23.289Z,0.60
2023-03-26T07:42:22.391Z,0.50
2023-03-26T07:45:26.076Z,0.65
2023-03-26T07:48:21.519Z,0.68
2023-03-26T07:51:18.734Z,0.50
2023-03-26T07:54:08.608Z,0.60
2023-03-26T07:57:04.647Z,0.60
2023-03-26T07:59:41.016Z,0.65
2023-03-26T08:02:45.676Z,0.60
2023-03-26T08:05:53.871Z,0.60
2023-03-26T08:08:54.615Z,0.73
2023-03-26T08:11:59.394Z,0.40
2023-03-26T08:14:42.462Z,0.40
2023-03-26T08:17:35.371Z,0.40
2023-03-26T08:20:41.545Z,0.52
2023-03-26T08:23:20.221Z,0.47
2023-03-26T08:26:02.711Z,0.50
2023-03-26T08:28:55.663Z,0.50
2023-03-26T08:31:39.049Z,0.38
2023-03-26T08:34:09.539Z,0.40
2023-03-26T08:36:37.515Z,0.50
2023-03-26T08:39:05.910Z,0.67
2023-03-26T08:42:20.397Z,0.60
2023-03-26T08:44:57.070Z,0.60
2023-03-26T08:48:13.682Z,0.30
2023-03-26T08:51:02.276Z,0.50
2023-03-26T08:53:56.415Z,0.70
2023-03-26T08:56:32.166Z,0.43
2023-03-26T08:59:24.165Z,0.75
2023-03-26T09:02:20.239Z,0.60
2023-03-26T09:05:19.859Z,0.63
2023-03-26T09:08:05.478Z,0.50
2023-03-26T09:10:55.129Z,0.50
2023-03-26T09:14:10.561Z,0.55
2023-03-26T09:17:16.124Z,0.68
2023-03-26T09:20:29.382Z,0.70
2023-03-26T09:23:27.263Z,0.60
2023-03-26T09:26:58.914Z,0.73
2023-03-26T09:30:14.098Z,0.52
2023-03-26T09:33:01.866Z,0.50
2023-03-26T09:35:47.727Z,0.68
2023-03-26T09:38:44.429Z,0.70
2023-03-26T09:41:42.734Z,0.52
2023-03-26T09:44:25.821Z,0.50
2023-03-26T09:47:09.555Z,0.70
2023-03-26T09:50:01.375Z,0.90
2023-03-26T09:53:15.981Z,0.73
2023-03-26T09:56:10.022Z,0.68
2023-03-26T09:59:26.500Z,1.05
2023-03-26T10:02:11.625Z,0.82
2023-03-26T10:05:00.446Z,0.55
2023-03-26T10:08:12.562Z,0.70
2023-03-26T10:10:50.259Z,0.80
2023-03-26T10:13:48.946Z,1.15
2023-03-26T10:16:38.392Z,1.20
2023-03-26T10:19:28.849Z,0.77
2023-03-26T10:22:29.805Z,0.67
2023-03-26T10:25:33.893Z,1.30
2023-03-26T10:28:34.384Z,0.80
2023-03-26T10:31:44.995Z,0.90
2023-03-26T10:34:55.307Z,1.23
2023-03-26T10:38:06.124Z,1.10
2023-03-26T10:40:42.849Z,1.10
2023-03-26T10:44:05.536Z,1.13
2023-03-26T10:46:56.676Z,0.90
2023-03-26T10:49:29.455Z,0.80
2023-03-26T10:52:02.372Z,0.70
2023-03-26T10:54:59.841Z,0.55
2023-03-26T10:57:56.268Z,0.82
2023-03-26T11:00:27.044Z,0.70
2023-03-26T11:03:14.737Z,0.98
2023-03-26T11:06:38.874Z,0.93
2023-03-26T11:09:35.706Z,0.90
2023-03-26T11:12:45.323Z,0.80
2023-03-26T11:15:23.032Z,1.05
2023-03-26T11:18:19.295Z,1.08
2023-03-26T11:20:57.803Z,0.73
2023-03-26T11:24:22.339Z,1.10
2023-03-26T11:27:15.299Z,1.05
2023-03-26T11:30:06.417Z,0.82
2023-03-26T11:32:45.358Z,0.90
2023-03-26T11:35:40.604Z,0.83
2023-03-26T11:38:18.420Z,0.70
2023-03-26T11:40:51.034Z,0.93
2023-03-26T11:43:41.312Z,0.80
2023-03-26T11:46:13.521Z,1.38
2023-03-26T11:48:51.729Z,1.00
2023-03-26T11:51:38.444Z,1.00
2023-03-26T11:54:08.075Z,1.50
2023-03-26T11:57:05.355Z,1.20
2023-03-26T11:59:56.285Z,1.25
2023-03-26T12:02:35.534Z,1.10
2023-03-26T12:05:18.760Z,1.30
2023-03-26T12:07:58.527Z,1.60
2023-03-26T12:10:25.746Z,1.15
2023-03-26T12:13:00.823Z,1.40
2023-03-26T12:15:30.855Z,1.37
2023-03-26T12:17:59.650Z,1.38
2023-03-26T12:20:26.995Z,1.42
2023-03-26T12:22:59.625Z,1.30
2023-03-26T12:25:38.716Z,1.30
2023-03-26T12:28:15.761Z,1.27
2023-03-26T12:31:05.028Z,1.10
2023-03-26T12:33:34.757Z,1.45
2023-03-26T12:36:25.618Z,1.10
2023-03-26T12:40:06.217Z,1.33
2023-03-26T12:44:44.990Z,1.20
2023-03-26T12:44:59.262Z,1.48
2023-03-26T12:47:58.983Z,1.40
2023-03-26T12:50:34.681Z,1.38
2023-03-26T12:53:42.391Z,1.20
2023-03-26T12:56:36.912Z,1.17
2023-03-26T12:59:41.013Z,1.08
2023-03-26T13:02:33.957Z,1.40
2023-03-26T13:05:09.125Z,1.60
2023-03-26T13:08:00.412Z,1.45
2023-03-26T13:10:43.098Z,1.83
2023-03-26T13:13:44.155Z,1.45
2023-03-26T13:16:36.604Z,1.20
2023-03-26T13:19:14.454Z,1.08
2023-03-26T13:22:21.772Z,1.70
2023-03-26T13:25:22.017Z,2.00
2023-03-26T13:28:20.348Z,1.48
2023-03-26T13:31:11.681Z,1.90
2023-03-26T13:33:44.913Z,1.60
2023-03-26T13:36:36.431Z,1.33
2023-03-26T13:39:40.978Z,1.17
2023-03-26T13:42:31.538Z,1.13
2023-03-26T13:45:49.820Z,1.35
2023-03-26T13:48:24.342Z,1.90
2023-03-26T13:51:14.381Z,1.65
2023-03-26T13:53:55.749Z,1.50
2023-03-26T13:56:34.416Z,2.03
2023-03-26T13:59:17.189Z,1.00
2023-03-26T14:02:11.619Z,1.10
2023-03-26T14:04:48.906Z,1.20
2023-03-26T14:07:26.521Z,1.10
2023-03-26T14:10:10.732Z,1.15
2023-03-26T14:12:52.023Z,0.73
2023-03-26T14:15:31.223Z,0.52
2023-03-26T14:18:22.987Z,1.50
2023-03-26T14:21:28.212Z,1.30
2023-03-26T14:24:18.540Z,1.40
2023-03-26T14:27:34.231Z,1.98
2023-03-26T14:30:13.262Z,1.15
2023-03-26T14:33:34.107Z,1.50
2023-03-26T14:36:39.466Z,1.50
2023-03-26T14:39:18.907Z,1.40
2023-03-26T14:41:58.776Z,1.30
2023-03-26T14:44:50.630Z,1.48
2023-03-26T14:47:20.763Z,1.88
2023-03-26T14:50:26.677Z,1.73
2023-03-26T14:53:01.394Z,2.40
2023-03-26T14:55:48.755Z,1.50
2023-03-26T14:59:10.126Z,1.30
2023-03-26T15:02:22.400Z,1.40
2023-03-26T15:05:43.143Z,1.73
2023-03-26T15:08:58.359Z,1.80
2023-03-26T15:12:33.435Z,1.65
2023-03-26T15:15:31.097Z,1.48
2023-03-26T15:18:37.900Z,2.22
2023-03-26T15:21:38.618Z,2.00
2023-03-26T15:24:08.266Z,2.00
2023-03-26T15:27:21.301Z,2.28
2023-03-26T15:30:30.184Z,1.65
2023-03-26T15:33:28.318Z,1.92
2023-03-26T15:36:44.756Z,2.70
2023-03-26T15:40:07.342Z,2.20
2023-03-26T15:43:14.986Z,2.40
2023-03-26T15:46:23.445Z,2.53
2023-03-26T15:49:16.781Z,2.40
2023-03-26T15:52:24.385Z,2.53
2023-03-26T15:55:36.650Z,3.03
2023-03-26T15:58:15.429Z,2.80
2023-03-26T16:01:02.817Z,2.88
2023-03-26T16:03:48.173Z,2.90
2023-03-26T16:06:27.861Z,3.83
2023-03-26T16:09:29.016Z,3.97
2023-03-26T16:12:45.992Z,3.72
2023-03-26T16:15:24.468Z,3.83
2023-03-26T16:18:10.345Z,3.42
2023-03-26T16:20:50.874Z,2.80
2023-03-26T16:23:56.353Z,3.42
2023-03-26T16:26:36.292Z,4.05
2023-03-26T16:29:24.058Z,2.95
2023-03-26T16:32:12.300Z,2.70
2023-03-26T16:34:57.325Z,2.20
2023-03-26T16:37:36.695Z,2.45
2023-03-26T16:40:20.783Z,3.42
2023-03-26T16:43:21.841Z,2.60
2023-03-26T16:46:26.219Z,2.15
2023-03-26T16:49:29.451Z,2.30
2023-03-26T16:52:30.366Z,2.30
2023-03-26T16:55:24.427Z,3.75
2023-03-26T16:58:17.091Z,2.20
2023-03-26T17:01:11.827Z,2.53
2023-03-26T17:03:55.007Z,1.97
2023-03-26T17:07:01.941Z,2.20
2023-03-26T17:09:56.387Z,2.42
2023-03-26T17:12:59.130Z,2.03
2023-03-26T17:16:01.881Z,2.95
2023-03-26T17:18:47.170Z,2.50
2023-03-26T17:21:26.644Z,2.60
2023-03-26T17:24:15.251Z,3.80
2023-03-26T17:26:58.014Z,3.15
2023-03-26T17:30:21.882Z,3.13
2023-03-26T17:33:02.639Z,3.60
2023-03-26T17:35:46.075Z,2.55
2023-03-26T17:38:21.924Z,2.60
2023-03-26T17:40:55.068Z,3.80
2023-03-26T17:43:43.743Z,3.17
2023-03-26T17:46:42.950Z,2.77
2023-03-26T17:49:12.990Z,2.85
2023-03-26T17:51:58.104Z,2.50
2023-03-26T17:54:34.818Z,2.28
2023-03-26T17:57:40.141Z,2.00
2023-03-26T18:00:16.736Z,2.43
2023-03-26T18:02:54.089Z,2.42
2023-03-26T18:05:25.428Z,3.00
2023-03-26T18:08:06.625Z,3.03
2023-03-26T18:11:04.306Z,2.90
2023-03-26T18:14:08.979Z,2.70
2023-03-26T18:16:47.718Z,2.20
2023-03-26T18:19:22.656Z,2.13
2023-03-26T18:22:04.674Z,1.73
2023-03-26T18:24:41.214Z,1.85
2023-03-26T18:27:14.820Z,2.30
2023-03-26T18:30:02.765Z,2.33
2023-03-26T18:32:33.883Z,2.50
2023-03-26T18:35:21.634Z,2.40
2023-03-26T18:37:53.422Z,2.00
2023-03-26T18:40:23.997Z,1.27
2023-03-26T18:42:57.624Z,1.35
2023-03-26T18:45:39.558Z,1.67
2023-03-26T18:48:19.180Z,1.83
2023-03-26T18:50:56.313Z,1.40
2023-03-26T18:53:30.192Z,2.47
2023-03-26T18:55:58.428Z,1.40
2023-03-26T18:58:32.695Z,1.15
2023-03-26T19:01:04.113Z,1.00
2023-03-26T19:03:35.695Z,2.03
2023-03-26T19:06:04.728Z,1.33
2023-03-26T19:08:35.711Z,1.63
2023-03-26T19:11:04.869Z,1.10
2023-03-26T19:13:34.659Z,1.27
2023-03-26T19:16:09.054Z,1.13
2023-03-26T19:18:41.101Z,1.30
2023-03-26T19:21:11.394Z,1.63
2023-03-26T19:23:41.180Z,1.02
2023-03-26T19:26:12.549Z,1.00
2023-03-26T19:28:49.299Z,1.20
2023-03-26T19:31:16.458Z,1.30
2023-03-26T19:33:44.765Z,1.30
2023-03-26T19:36:15.002Z,1.40
2023-03-26T19:38:52.290Z,1.00
2023-03-26T19:41:34.451Z,1.60
2023-03-26T19:44:29.611Z,0.97
2023-03-26T19:47:39.081Z,1.20
2023-03-26T19:50:34.644Z,1.05
2023-03-26T19:53:30.040Z,1.20
2023-03-26T19:56:13.444Z,1.15
2023-03-26T19:58:42.090Z,1.20
2023-03-26T20:01:20.968Z,1.25
2023-03-26T20:03:52.852Z,1.13
2023-03-26T20:06:30.782Z,1.42
2023-03-26T20:09:02.192Z,1.33
2023-03-26T20:11:39.226Z,0.70
2023-03-26T20:14:16.770Z,0.75
2023-03-26T20:16:45.330Z,1.27
2023-03-26T20:19:14.547Z,0.80
2023-03-26T20:21:42.536Z,1.10
2023-03-26T20:24:15.049Z,0.50
2023-03-26T20:26:43.273Z,0.88
2023-03-26T20:29:11.705Z,0.63
2023-03-26T20:31:41.834Z,1.02
2023-03-26T20:34:22.771Z,0.57
2023-03-26T20:36:55.878Z,0.70
2023-03-26T20:39:25.001Z,0.93
2023-03-26T20:41:54.840Z,0.80
2023-03-26T20:44:22.696Z,1.08
2023-03-26T20:46:51.484Z,0.70
2023-03-26T20:49:22.193Z,0.60
2023-03-26T20:51:49.789Z,1.33
2023-03-26T20:54:24.146Z,0.63
2023-03-26T20:56:53.653Z,0.55
2023-03-26T20:59:26.410Z,0.65
2023-03-26T21:01:56.566Z,1.17
2023-03-26T21:04:24.972Z,1.05
2023-03-26T21:06:57.574Z,1.23
2023-03-26T21:09:34.992Z,0.60
2023-03-26T21:12:16.928Z,0.80
2023-03-26T21:14:44.520Z,0.53
2023-03-26T21:17:18.482Z,0.90
2023-03-26T21:19:46.745Z,1.17
2023-03-26T21:22:28.806Z,0.70
2023-03-26T21:25:08.117Z,0.50
2023-03-26T21:28:09.107Z,0.50
2023-03-26T21:30:37.462Z,0.90
2023-03-26T21:33:05.348Z,0.50
2023-03-26T21:35:34.760Z,0.60
2023-03-26T21:38:05.030Z,1.15
2023-03-26T21:40:33.195Z,0.50
2023-03-26T21:43:00.713Z,0.70
2023-03-26T21:45:28.672Z,0.63
2023-03-26T21:47:56.617Z,0.60
2023-03-26T21:50:24.503Z,0.90
2023-03-26T21:52:52.611Z,0.50
2023-03-26T21:55:22.966Z,0.68
2023-03-26T21:57:55.637Z,1.02
2023-03-26T22:00:30.763Z,0.90
2023-03-26T22:04:10.737Z,1.05
2023-03-26T22:06:57.937Z,0.47
2023-03-26T22:09:35.637Z,0.65
2023-03-26T22:12:04.324Z,0.45
2023-03-26T22:14:31.454Z,0.88
2023-03-26T22:16:58.537Z,0.90
2023-03-26T22:19:25.667Z,0.50
2023-03-26T22:21:54.320Z,0.63
2023-03-26T22:24:21.515Z,0.60
2023-03-26T22:26:48.694Z,0.57
2023-03-26T22:29:15.869Z,1.20
2023-03-26T22:31:43.089Z,1.07
2023-03-26T22:34:10.204Z,0.75
2023-03-26T22:36:39.773Z,0.60
2023-03-26T22:39:07.508Z,0.90
2023-03-26T22:41:34.582Z,0.60
2023-03-26T22:44:16.774Z,0.70
2023-03-26T22:46:49.230Z,0.77
2023-03-26T22:49:17.679Z,0.63
2023-03-26T22:51:44.740Z,0.47
2023-03-26T22:54:11.847Z,0.88
2023-03-26T22:56:39.101Z,0.57
2023-03-26T22:59:07.120Z,0.77
2023-03-26T23:01:34.795Z,0.93
2023-03-26T23:04:02.302Z,0.70
2023-03-26T23:06:29.647Z,0.50
2023-03-26T23:08:57.054Z,0.33
2023-03-26T23:11:24.570Z,0.73
2023-03-26T23:13:52.007Z,0.95
2023-03-26T23:16:21.511Z,0.50
2023-03-26T23:18:48.842Z,0.65
2023-03-26T23:21:19.581Z,0.90
2023-03-26T23:23:48.692Z,0.32
2023-03-26T23:26:16.328Z,0.57
2023-03-26T23:28:43.681Z,0.88
2023-03-26T23:31:13.473Z,0.70
2023-03-26T23:33:46.270Z,0.30
2023-03-26T23:36:18.429Z,0.52
2023-03-26T23:38:48.350Z,0.40
2023-03-26T23:41:18.738Z,0.68
2023-03-26T23:43:53.617Z,0.60
2023-03-26T23:46:25.193Z,0.43
2023-03-26T23:48:53.188Z,0.45
2023-03-26T23:51:21.411Z,0.40
2023-03-26T23:53:49.515Z,0.60
2023-03-26T23:56:17.213Z,0.40
2023-03-26T23:58:44.686Z,0.63
